sensor_id;sensor_type;location;lat;lon;timestamp;temperature;humidity
24436;DHT22;12616;52.470;13.436;2023-05-16T00:01:56;14.70;1.00
24436;DHT22;12616;52.470;13.436;2023-05-16T00:04:23;14.70;99.90
24436;DHT22;12616;52.470;13.436;2023-05-16T00:06:52;14.70;25.50
24436;DHT22;12616;52.470;13.436;2023-05-16T00:09:19;14.80;1.00
24436;DHT22;12616;52.470;13.436;2023-05-16T00:11:46;14.70;1.00
24436;DHT22;12616;52.470;13.436;2023-05-16T00:14:14;14.80;1.00
24436;DHT22;12616;52.470;13.436;2023-05-16T00:16:41;14.90;99.90
24436;DHT22;12616;52.470;13.436;2023-05-16T00:19:08;14.90;99.90
24436;DHT22;12616;52.470;13.436;2023-05-16T00:21:35;14.90;99.90
24436;DHT22;12616;52.470;13.436;2023-05-16T00:24:04;14.90;65.00
24436;DHT22;12616;52.470;13.436;2023-05-16T00:26:31;14.90;6.50
24436;DHT22;12616;52.470;13.436;2023-05-16T00:28:58;14.80;1.00
24436;DHT22;12616;52.470;13.436;2023-05-16T00:31:25;14.70;99.90
24436;DHT22;12616;52.470;13.436;2023-05-16T00:33:52;14.70;12.30
24436;DHT22;12616;52.470;13.436;2023-05-16T00:36:19;14.70;99.90
24436;DHT22;12616;52.470;13.436;2023-05-16T00:38:46;14.70;99.90
24436;DHT22;12616;52.470;13.436;2023-05-16T00:41:15;14.60;45.90
24436;DHT22;12616;52.470;13.436;2023-05-16T00:43:42;14.70;1.00
24436;DHT22;12616;52.470;13.436;2023-05-16T00:46:09;14.50;99.90
24436;DHT22;12616;52.470;13.436;2023-05-16T00:48:36;14.60;1.00
24436;DHT22;12616;52.470;13.436;2023-05-16T00:51:03;14.60;99.90
24436;DHT22;12616;52.470;13.436;2023-05-16T00:53:35;14.60;1.00
24436;DHT22;12616;52.470;13.436;2023-05-16T00:56:02;14.60;1.00
24436;DHT22;12616;52.470;13.436;2023-05-16T00:58:30;14.50;1.00
24436;DHT22;12616;52.470;13.436;2023-05-16T01:00:58;14.40;1.00
24436;DHT22;12616;52.470;13.436;2023-05-16T01:03:26;14.40;99.90
24436;DHT22;12616;52.470;13.436;2023-05-16T01:05:53;14.30;1.00
24436;DHT22;12616;52.470;13.436;2023-05-16T01:08:20;14.30;1.00
24436;DHT22;12616;52.470;13.436;2023-05-16T01:10:56;14.30;1.00
24436;DHT22;12616;52.470;13.436;2023-05-16T01:13:32;14.30;99.90
24436;DHT22;12616;52.470;13.436;2023-05-16T01:16:09;14.20;1.00
24436;DHT22;12616;52.470;13.436;2023-05-16T01:18:41;14.40;1.00
24436;DHT22;12616;52.470;13.436;2023-05-16T01:21:14;14.00;99.90
24436;DHT22;12616;52.470;13.436;2023-05-16T01:23:50;14.00;1.00
24436;DHT22;12616;52.470;13.436;2023-05-16T01:26:21;14.00;99.90
24436;DHT22;12616;52.470;13.436;2023-05-16T01:28:49;14.00;1.00
24436;DHT22;12616;52.470;13.436;2023-05-16T01:31:17;14.00;99.90
24436;DHT22;12616;52.470;13.436;2023-05-16T01:33:44;13.90;99.90
24436;DHT22;12616;52.470;13.436;2023-05-16T01:36:18;13.90;1.00
24436;DHT22;12616;52.470;13.436;2023-05-16T01:39:00;13.80;1.00
24436;DHT22;12616;52.470;13.436;2023-05-16T01:41:37;13.60;1.00
24436;DHT22;12616;52.470;13.436;2023-05-16T01:44:13;13.30;99.90
24436;DHT22;12616;52.470;13.436;2023-05-16T01:46:43;13.50;14.00
24436;DHT22;12616;52.470;13.436;2023-05-16T01:49:15;13.60;99.90
24436;DHT22;12616;52.470;13.436;2023-05-16T01:51:44;13.50;90.50
24436;DHT22;12616;52.470;13.436;2023-05-16T01:54:18;13.40;1.00
24436;DHT22;12616;52.470;13.436;2023-05-16T01:56:51;13.40;1.00
24436;DHT22;12616;52.470;13.436;2023-05-16T01:59:19;13.40;99.90
24436;DHT22;12616;52.470;13.436;2023-05-16T02:01:47;13.00;99.90
24436;DHT22;12616;52.470;13.436;2023-05-16T02:04:14;13.30;99.90
24436;DHT22;12616;52.470;13.436;2023-05-16T02:06:41;13.30;1.00
24436;DHT22;12616;52.470;13.436;2023-05-16T02:09:08;13.20;99.90
24436;DHT22;12616;52.470;13.436;2023-05-16T02:11:34;13.10;99.90
24436;DHT22;12616;52.470;13.436;2023-05-16T02:14:03;13.10;99.90
24436;DHT22;12616;52.470;13.436;2023-05-16T02:16:30;13.10;99.90
24436;DHT22;12616;52.470;13.436;2023-05-16T02:18:56;13.00;1.00
24436;DHT22;12616;52.470;13.436;2023-05-16T02:21:23;12.80;1.00
24436;DHT22;12616;52.470;13.436;2023-05-16T02:23:50;12.80;99.90
24436;DHT22;12616;52.470;13.436;2023-05-16T02:26:17;12.90;99.90
24436;DHT22;12616;52.470;13.436;2023-05-16T02:28:44;12.70;99.90
24436;DHT22;12616;52.470;13.436;2023-05-16T02:31:24;12.90;1.00
24436;DHT22;12616;52.470;13.436;2023-05-16T02:33:51;12.50;1.00
24436;DHT22;12616;52.470;13.436;2023-05-16T02:36:18;12.30;99.90
24436;DHT22;12616;52.470;13.436;2023-05-16T02:38:45;12.50;99.90
24436;DHT22;12616;52.470;13.436;2023-05-16T02:41:12;12.40;1.00
24436;DHT22;12616;52.470;13.436;2023-05-16T02:43:39;12.50;99.90
24436;DHT22;12616;52.470;13.436;2023-05-16T02:46:20;12.50;99.90
24436;DHT22;12616;52.470;13.436;2023-05-16T02:48:47;12.60;1.00
24436;DHT22;12616;52.470;13.436;2023-05-16T02:51:14;12.40;1.00
24436;DHT22;12616;52.470;13.436;2023-05-16T02:53:41;12.40;1.00
24436;DHT22;12616;52.470;13.436;2023-05-16T02:56:08;12.50;1.00
24436;DHT22;12616;52.470;13.436;2023-05-16T02:58:35;12.50;60.90
24436;DHT22;12616;52.470;13.436;2023-05-16T03:01:02;12.50;1.00
24436;DHT22;12616;52.470;13.436;2023-05-16T03:03:30;12.40;99.90
24436;DHT22;12616;52.470;13.436;2023-05-16T03:05:57;12.40;4.90
24436;DHT22;12616;52.470;13.436;2023-05-16T03:08:25;12.70;1.00
24436;DHT22;12616;52.470;13.436;2023-05-16T03:10:51;12.50;99.90
24436;DHT22;12616;52.470;13.436;2023-05-16T03:13:18;12.50;99.90
24436;DHT22;12616;52.470;13.436;2023-05-16T03:15:45;12.50;99.90
24436;DHT22;12616;52.470;13.436;2023-05-16T03:18:12;12.20;26.60
24436;DHT22;12616;52.470;13.436;2023-05-16T03:20:40;12.40;1.00
24436;DHT22;12616;52.470;13.436;2023-05-16T03:25:35;12.40;99.90
24436;DHT22;12616;52.470;13.436;2023-05-16T03:28:05;12.40;99.90
24436;DHT22;12616;52.470;13.436;2023-05-16T03:30:32;12.40;99.90
24436;DHT22;12616;52.470;13.436;2023-05-16T03:32:59;12.40;99.90
24436;DHT22;12616;52.470;13.436;2023-05-16T03:35:26;12.40;1.00
24436;DHT22;12616;52.470;13.436;2023-05-16T03:37:54;12.40;99.90
24436;DHT22;12616;52.470;13.436;2023-05-16T03:40:21;12.30;99.90
24436;DHT22;12616;52.470;13.436;2023-05-16T03:42:48;12.20;1.00
24436;DHT22;12616;52.470;13.436;2023-05-16T03:45:15;12.20;99.90
24436;DHT22;12616;52.470;13.436;2023-05-16T03:47:42;12.20;1.00
24436;DHT22;12616;52.470;13.436;2023-05-16T03:50:09;12.20;1.00
24436;DHT22;12616;52.470;13.436;2023-05-16T03:52:36;12.20;1.00
24436;DHT22;12616;52.470;13.436;2023-05-16T03:55:05;12.20;99.90
24436;DHT22;12616;52.470;13.436;2023-05-16T03:57:33;12.20;99.90
24436;DHT22;12616;52.470;13.436;2023-05-16T04:00:00;11.90;1.00
24436;DHT22;12616;52.470;13.436;2023-05-16T04:02:32;12.10;1.00
24436;DHT22;12616;52.470;13.436;2023-05-16T04:04:59;12.20;1.00
24436;DHT22;12616;52.470;13.436;2023-05-16T04:07:26;12.00;99.90
24436;DHT22;12616;52.470;13.436;2023-05-16T04:09:53;11.70;1.00
24436;DHT22;12616;52.470;13.436;2023-05-16T04:12:22;11.90;99.90
24436;DHT22;12616;52.470;13.436;2023-05-16T04:14:48;12.00;99.90
24436;DHT22;12616;52.470;13.436;2023-05-16T04:17:15;11.70;1.00
24436;DHT22;12616;52.470;13.436;2023-05-16T04:19:42;11.70;99.90
24436;DHT22;12616;52.470;13.436;2023-05-16T04:22:09;11.80;99.90
24436;DHT22;12616;52.470;13.436;2023-05-16T04:24:36;11.90;1.00
24436;DHT22;12616;52.470;13.436;2023-05-16T04:27:04;11.80;1.00
24436;DHT22;12616;52.470;13.436;2023-05-16T04:29:34;11.80;1.00
24436;DHT22;12616;52.470;13.436;2023-05-16T04:32:01;11.80;99.90
24436;DHT22;12616;52.470;13.436;2023-05-16T04:36:56;11.80;1.00
24436;DHT22;12616;52.470;13.436;2023-05-16T04:39:22;11.80;1.00
24436;DHT22;12616;52.470;13.436;2023-05-16T04:41:49;11.80;74.30
24436;DHT22;12616;52.470;13.436;2023-05-16T04:44:16;11.70;1.00
24436;DHT22;12616;52.470;13.436;2023-05-16T04:46:46;11.50;1.00
24436;DHT22;12616;52.470;13.436;2023-05-16T04:49:13;11.60;1.00
24436;DHT22;12616;52.470;13.436;2023-05-16T04:51:39;11.60;99.90
24436;DHT22;12616;52.470;13.436;2023-05-16T04:54:06;11.70;99.90
24436;DHT22;12616;52.470;13.436;2023-05-16T04:56:35;11.70;1.00
24436;DHT22;12616;52.470;13.436;2023-05-16T04:59:02;11.70;1.00
24436;DHT22;12616;52.470;13.436;2023-05-16T05:01:28;11.60;1.00
24436;DHT22;12616;52.470;13.436;2023-05-16T05:03:57;11.60;1.00
24436;DHT22;12616;52.470;13.436;2023-05-16T05:06:24;11.50;1.00
24436;DHT22;12616;52.470;13.436;2023-05-16T05:08:52;11.50;1.00
24436;DHT22;12616;52.470;13.436;2023-05-16T05:11:19;11.50;10.50
24436;DHT22;12616;52.470;13.436;2023-05-16T05:13:47;11.50;8.20
24436;DHT22;12616;52.470;13.436;2023-05-16T05:16:14;11.50;79.30
24436;DHT22;12616;52.470;13.436;2023-05-16T05:21:10;11.50;1.00
24436;DHT22;12616;52.470;13.436;2023-05-16T05:23:37;11.40;99.90
24436;DHT22;12616;52.470;13.436;2023-05-16T05:26:04;11.40;1.00
24436;DHT22;12616;52.470;13.436;2023-05-16T05:28:31;11.50;1.00
24436;DHT22;12616;52.470;13.436;2023-05-16T05:30:58;11.50;1.00
24436;DHT22;12616;52.470;13.436;2023-05-16T05:33:26;11.20;99.90
24436;DHT22;12616;52.470;13.436;2023-05-16T05:35:54;11.80;1.00
24436;DHT22;12616;52.470;13.436;2023-05-16T05:38:22;11.30;99.90
24436;DHT22;12616;52.470;13.436;2023-05-16T05:40:49;11.50;1.00
24436;DHT22;12616;52.470;13.436;2023-05-16T05:43:16;11.50;99.90
24436;DHT22;12616;52.470;13.436;2023-05-16T05:45:43;11.50;1.00
24436;DHT22;12616;52.470;13.436;2023-05-16T05:48:11;11.30;1.00
24436;DHT22;12616;52.470;13.436;2023-05-16T05:50:38;11.40;1.00
24436;DHT22;12616;52.470;13.436;2023-05-16T05:53:05;11.50;1.00
24436;DHT22;12616;52.470;13.436;2023-05-16T05:55:33;11.40;99.90
24436;DHT22;12616;52.470;13.436;2023-05-16T05:58:03;11.50;99.90
24436;DHT22;12616;52.470;13.436;2023-05-16T06:00:30;11.50;99.90
24436;DHT22;12616;52.470;13.436;2023-05-16T06:02:57;11.60;99.90
24436;DHT22;12616;52.470;13.436;2023-05-16T06:05:24;11.60;88.80
24436;DHT22;12616;52.470;13.436;2023-05-16T06:07:51;11.40;1.00
24436;DHT22;12616;52.470;13.436;2023-05-16T06:10:17;11.70;1.00
24436;DHT22;12616;52.470;13.436;2023-05-16T06:12:46;11.70;1.00
24436;DHT22;12616;52.470;13.436;2023-05-16T06:15:13;11.70;1.00
24436;DHT22;12616;52.470;13.436;2023-05-16T06:17:40;11.70;99.90
24436;DHT22;12616;52.470;13.436;2023-05-16T06:20:07;11.40;99.90
24436;DHT22;12616;52.470;13.436;2023-05-16T06:22:34;11.70;99.90
24436;DHT22;12616;52.470;13.436;2023-05-16T06:25:02;11.60;1.00
24436;DHT22;12616;52.470;13.436;2023-05-16T06:27:29;11.60;99.90
24436;DHT22;12616;52.470;13.436;2023-05-16T06:29:57;11.90;99.90
24436;DHT22;12616;52.470;13.436;2023-05-16T06:32:24;11.40;1.00
24436;DHT22;12616;52.470;13.436;2023-05-16T06:34:51;11.80;99.90
24436;DHT22;12616;52.470;13.436;2023-05-16T06:37:18;11.80;1.00
24436;DHT22;12616;52.470;13.436;2023-05-16T06:39:45;11.90;99.90
24436;DHT22;12616;52.470;13.436;2023-05-16T06:42:11;11.90;1.00
24436;DHT22;12616;52.470;13.436;2023-05-16T06:44:38;11.90;1.00
24436;DHT22;12616;52.470;13.436;2023-05-16T06:47:07;11.80;1.00
24436;DHT22;12616;52.470;13.436;2023-05-16T06:49:34;12.00;99.90
24436;DHT22;12616;52.470;13.436;2023-05-16T06:52:01;11.90;1.00
24436;DHT22;12616;52.470;13.436;2023-05-16T06:54:28;12.00;1.00
24436;DHT22;12616;52.470;13.436;2023-05-16T06:56:55;12.00;1.00
24436;DHT22;12616;52.470;13.436;2023-05-16T06:59:22;12.10;1.00
24436;DHT22;12616;52.470;13.436;2023-05-16T07:01:49;12.10;99.90
24436;DHT22;12616;52.470;13.436;2023-05-16T07:04:18;12.00;99.90
24436;DHT22;12616;52.470;13.436;2023-05-16T07:06:45;12.00;99.90
24436;DHT22;12616;52.470;13.436;2023-05-16T07:09:12;12.20;99.90
24436;DHT22;12616;52.470;13.436;2023-05-16T07:11:39;12.10;99.90
24436;DHT22;12616;52.470;13.436;2023-05-16T07:14:07;12.30;99.90
24436;DHT22;12616;52.470;13.436;2023-05-16T07:16:34;12.20;99.90
24436;DHT22;12616;52.470;13.436;2023-05-16T07:19:01;12.20;99.90
24436;DHT22;12616;52.470;13.436;2023-05-16T07:21:29;12.10;99.90
24436;DHT22;12616;52.470;13.436;2023-05-16T07:23:57;12.00;99.90
24436;DHT22;12616;52.470;13.436;2023-05-16T07:26:24;11.70;99.90
24436;DHT22;12616;52.470;13.436;2023-05-16T07:28:51;12.10;1.00
24436;DHT22;12616;52.470;13.436;2023-05-16T07:31:21;12.20;99.90
24436;DHT22;12616;52.470;13.436;2023-05-16T07:33:48;12.30;99.90
24436;DHT22;12616;52.470;13.436;2023-05-16T07:36:15;12.30;73.50
24436;DHT22;12616;52.470;13.436;2023-05-16T07:38:44;11.90;1.00
24436;DHT22;12616;52.470;13.436;2023-05-16T07:41:14;11.90;99.90
24436;DHT22;12616;52.470;13.436;2023-05-16T07:43:41;12.10;15.50
24436;DHT22;12616;52.470;13.436;2023-05-16T07:46:07;12.40;72.60
24436;DHT22;12616;52.470;13.436;2023-05-16T07:48:35;12.50;27.50
24436;DHT22;12616;52.470;13.436;2023-05-16T07:51:02;12.50;19.60
24436;DHT22;12616;52.470;13.436;2023-05-16T07:53:29;12.60;1.00
24436;DHT22;12616;52.470;13.436;2023-05-16T07:56:05;12.40;99.90
24436;DHT22;12616;52.470;13.436;2023-05-16T07:58:36;12.60;1.00
24436;DHT22;12616;52.470;13.436;2023-05-16T08:08:42;14.20;1.00
24436;DHT22;12616;52.470;13.436;2023-05-16T08:11:15;12.10;95.40
24436;DHT22;12616;52.470;13.436;2023-05-16T08:13:42;12.10;99.90
24436;DHT22;12616;52.470;13.436;2023-05-16T08:16:09;12.20;1.00
24436;DHT22;12616;52.470;13.436;2023-05-16T08:21:04;11.90;99.90
24436;DHT22;12616;52.470;13.436;2023-05-16T08:23:48;12.10;93.50
24436;DHT22;12616;52.470;13.436;2023-05-16T08:26:19;12.30;99.90
24436;DHT22;12616;52.470;13.436;2023-05-16T08:33:42;11.80;1.00
24436;DHT22;12616;52.470;13.436;2023-05-16T08:36:09;11.80;99.90
24436;DHT22;12616;52.470;13.436;2023-05-16T08:38:37;12.00;53.60
24436;DHT22;12616;52.470;13.436;2023-05-16T08:41:05;12.00;1.00
24436;DHT22;12616;52.470;13.436;2023-05-16T08:43:41;11.70;17.80
24436;DHT22;12616;52.470;13.436;2023-05-16T08:48:36;12.00;1.00
24436;DHT22;12616;52.470;13.436;2023-05-16T08:51:14;12.20;99.90
24436;DHT22;12616;52.470;13.436;2023-05-16T08:53:51;12.10;1.00
24436;DHT22;12616;52.470;13.436;2023-05-16T08:56:20;10.50;1.00
24436;DHT22;12616;52.470;13.436;2023-05-16T08:58:51;12.10;1.00
24436;DHT22;12616;52.470;13.436;2023-05-16T09:01:20;12.10;1.00
24436;DHT22;12616;52.470;13.436;2023-05-16T09:03:48;12.20;1.00
24436;DHT22;12616;52.470;13.436;2023-05-16T09:06:16;12.30;1.00
24436;DHT22;12616;52.470;13.436;2023-05-16T09:08:43;12.40;99.90
24436;DHT22;12616;52.470;13.436;2023-05-16T09:11:12;12.40;1.00
24436;DHT22;12616;52.470;13.436;2023-05-16T09:13:39;12.40;1.00
24436;DHT22;12616;52.470;13.436;2023-05-16T09:16:12;12.60;16.60
24436;DHT22;12616;52.470;13.436;2023-05-16T09:18:41;12.60;1.00
24436;DHT22;12616;52.470;13.436;2023-05-16T09:21:09;12.50;1.00
24436;DHT22;12616;52.470;13.436;2023-05-16T09:23:37;12.60;1.00
24436;DHT22;12616;52.470;13.436;2023-05-16T09:26:04;12.60;1.00
24436;DHT22;12616;52.470;13.436;2023-05-16T09:28:32;12.50;1.00
24436;DHT22;12616;52.470;13.436;2023-05-16T09:30:59;12.50;1.00
24436;DHT22;12616;52.470;13.436;2023-05-16T09:33:28;13.30;25.10
24436;DHT22;12616;52.470;13.436;2023-05-16T09:35:57;12.50;1.00
24436;DHT22;12616;52.470;13.436;2023-05-16T09:38:26;12.50;1.00
24436;DHT22;12616;52.470;13.436;2023-05-16T09:40:53;12.60;1.00
24436;DHT22;12616;52.470;13.436;2023-05-16T09:43:24;12.60;1.00
24436;DHT22;12616;52.470;13.436;2023-05-16T09:45:51;12.70;1.00
24436;DHT22;12616;52.470;13.436;2023-05-16T09:48:20;12.70;1.00
24436;DHT22;12616;52.470;13.436;2023-05-16T09:50:50;12.70;1.00
24436;DHT22;12616;52.470;13.436;2023-05-16T09:53:24;12.80;1.00
24436;DHT22;12616;52.470;13.436;2023-05-16T09:55:59;12.80;1.00
24436;DHT22;12616;52.470;13.436;2023-05-16T09:58:32;13.10;1.00
24436;DHT22;12616;52.470;13.436;2023-05-16T10:00:59;12.70;1.00
24436;DHT22;12616;52.470;13.436;2023-05-16T10:03:27;12.50;1.00
24436;DHT22;12616;52.470;13.436;2023-05-16T10:05:56;12.20;1.00
24436;DHT22;12616;52.470;13.436;2023-05-16T10:08:24;12.20;1.00
24436;DHT22;12616;52.470;13.436;2023-05-16T10:10:55;12.30;1.00
24436;DHT22;12616;52.470;13.436;2023-05-16T10:13:30;12.50;1.00
24436;DHT22;12616;52.470;13.436;2023-05-16T10:15:58;12.60;1.00
24436;DHT22;12616;52.470;13.436;2023-05-16T10:18:29;12.60;1.00
24436;DHT22;12616;52.470;13.436;2023-05-16T10:21:03;12.70;1.00
24436;DHT22;12616;52.470;13.436;2023-05-16T10:23:30;12.70;1.00
24436;DHT22;12616;52.470;13.436;2023-05-16T10:26:01;12.60;1.00
24436;DHT22;12616;52.470;13.436;2023-05-16T10:28:29;12.40;1.00
24436;DHT22;12616;52.470;13.436;2023-05-16T10:30:57;12.30;1.00
24436;DHT22;12616;52.470;13.436;2023-05-16T10:33:24;12.30;1.00
24436;DHT22;12616;52.470;13.436;2023-05-16T10:35:51;12.30;1.00
24436;DHT22;12616;52.470;13.436;2023-05-16T10:38:20;12.30;1.00
24436;DHT22;12616;52.470;13.436;2023-05-16T10:40:49;12.50;1.00
24436;DHT22;12616;52.470;13.436;2023-05-16T10:43:24;12.40;1.00
24436;DHT22;12616;52.470;13.436;2023-05-16T10:45:55;12.80;1.00
24436;DHT22;12616;52.470;13.436;2023-05-16T10:48:30;12.90;1.00
24436;DHT22;12616;52.470;13.436;2023-05-16T10:50:57;13.10;1.00
24436;DHT22;12616;52.470;13.436;2023-05-16T10:53:31;13.10;1.00
24436;DHT22;12616;52.470;13.436;2023-05-16T10:56:06;13.00;1.00
24436;DHT22;12616;52.470;13.436;2023-05-16T10:58:45;12.80;1.00
24436;DHT22;12616;52.470;13.436;2023-05-16T11:01:31;12.80;55.10
24436;DHT22;12616;52.470;13.436;2023-05-16T11:04:07;12.70;1.00
24436;DHT22;12616;52.470;13.436;2023-05-16T11:06:48;12.70;1.00
24436;DHT22;12616;52.470;13.436;2023-05-16T11:09:25;12.30;1.00
24436;DHT22;12616;52.470;13.436;2023-05-16T11:12:02;12.30;1.00
24436;DHT22;12616;52.470;13.436;2023-05-16T11:14:36;12.20;1.00
24436;DHT22;12616;52.470;13.436;2023-05-16T11:17:07;12.30;1.00
24436;DHT22;12616;52.470;13.436;2023-05-16T11:19:39;12.30;1.00
24436;DHT22;12616;52.470;13.436;2023-05-16T11:22:11;12.20;1.00
24436;DHT22;12616;52.470;13.436;2023-05-16T11:24:49;12.40;1.00
24436;DHT22;12616;52.470;13.436;2023-05-16T11:27:21;12.60;1.00
24436;DHT22;12616;52.470;13.436;2023-05-16T11:29:49;12.50;1.00
24436;DHT22;12616;52.470;13.436;2023-05-16T11:32:19;12.70;1.00
24436;DHT22;12616;52.470;13.436;2023-05-16T11:34:47;12.90;1.00
24436;DHT22;12616;52.470;13.436;2023-05-16T11:37:15;12.70;1.00
24436;DHT22;12616;52.470;13.436;2023-05-16T11:39:43;12.70;1.00
24436;DHT22;12616;52.470;13.436;2023-05-16T11:42:10;12.90;1.00
24436;DHT22;12616;52.470;13.436;2023-05-16T11:44:38;13.00;1.00
24436;DHT22;12616;52.470;13.436;2023-05-16T11:47:05;13.00;1.00
24436;DHT22;12616;52.470;13.436;2023-05-16T11:49:32;13.00;1.00
24436;DHT22;12616;52.470;13.436;2023-05-16T11:52:00;13.00;1.00
24436;DHT22;12616;52.470;13.436;2023-05-16T11:54:27;13.00;99.90
24436;DHT22;12616;52.470;13.436;2023-05-16T11:56:55;13.00;99.90
24436;DHT22;12616;52.470;13.436;2023-05-16T11:59:22;13.00;1.00
24436;DHT22;12616;52.470;13.436;2023-05-16T12:01:49;13.20;99.90
24436;DHT22;12616;52.470;13.436;2023-05-16T12:04:16;13.30;99.90
24436;DHT22;12616;52.470;13.436;2023-05-16T12:06:57;13.50;99.90
24436;DHT22;12616;52.470;13.436;2023-05-16T12:09:25;13.80;99.90
24436;DHT22;12616;52.470;13.436;2023-05-16T12:11:51;13.80;99.90
24436;DHT22;12616;52.470;13.436;2023-05-16T12:14:20;13.90;99.90
24436;DHT22;12616;52.470;13.436;2023-05-16T12:16:47;14.00;99.90
24436;DHT22;12616;52.470;13.436;2023-05-16T12:19:15;13.90;99.90
24436;DHT22;12616;52.470;13.436;2023-05-16T12:21:42;13.80;99.90
24436;DHT22;12616;52.470;13.436;2023-05-16T12:24:09;13.80;99.90
24436;DHT22;12616;52.470;13.436;2023-05-16T12:26:39;13.90;99.90
24436;DHT22;12616;52.470;13.436;2023-05-16T12:29:07;14.00;99.90
24436;DHT22;12616;52.470;13.436;2023-05-16T12:31:38;13.90;99.90
24436;DHT22;12616;52.470;13.436;2023-05-16T12:34:14;13.60;99.90
24436;DHT22;12616;52.470;13.436;2023-05-16T12:36:42;13.70;99.90
24436;DHT22;12616;52.470;13.436;2023-05-16T12:39:11;13.80;99.90
24436;DHT22;12616;52.470;13.436;2023-05-16T12:41:40;13.80;99.90
24436;DHT22;12616;52.470;13.436;2023-05-16T12:44:10;13.90;99.90
24436;DHT22;12616;52.470;13.436;2023-05-16T12:46:44;13.80;1.00
24436;DHT22;12616;52.470;13.436;2023-05-16T12:49:11;13.90;99.90
24436;DHT22;12616;52.470;13.436;2023-05-16T12:51:39;14.00;1.00
24436;DHT22;12616;52.470;13.436;2023-05-16T12:54:07;13.80;99.90
24436;DHT22;12616;52.470;13.436;2023-05-16T12:56:36;13.80;99.90
24436;DHT22;12616;52.470;13.436;2023-05-16T12:59:03;13.90;1.00
24436;DHT22;12616;52.470;13.436;2023-05-16T13:01:30;13.80;99.90
24436;DHT22;12616;52.470;13.436;2023-05-16T13:03:58;13.90;99.90
24436;DHT22;12616;52.470;13.436;2023-05-16T13:06:25;14.20;99.90
24436;DHT22;12616;52.470;13.436;2023-05-16T13:08:52;14.50;99.90
24436;DHT22;12616;52.470;13.436;2023-05-16T13:11:19;14.80;99.90
24436;DHT22;12616;52.470;13.436;2023-05-16T13:13:46;14.90;99.90
24436;DHT22;12616;52.470;13.436;2023-05-16T13:16:13;15.00;99.90
24436;DHT22;12616;52.470;13.436;2023-05-16T13:18:40;14.90;99.90
24436;DHT22;12616;52.470;13.436;2023-05-16T13:21:09;15.10;99.90
24436;DHT22;12616;52.470;13.436;2023-05-16T13:23:36;15.20;99.90
24436;DHT22;12616;52.470;13.436;2023-05-16T13:26:03;15.20;99.90
24436;DHT22;12616;52.470;13.436;2023-05-16T13:28:30;15.10;99.90
24436;DHT22;12616;52.470;13.436;2023-05-16T13:30:57;14.90;99.90
24436;DHT22;12616;52.470;13.436;2023-05-16T13:33:24;14.90;99.90
24436;DHT22;12616;52.470;13.436;2023-05-16T13:35:51;14.80;99.90
24436;DHT22;12616;52.470;13.436;2023-05-16T13:38:21;14.90;99.90
24436;DHT22;12616;52.470;13.436;2023-05-16T13:40:48;14.80;99.90
24436;DHT22;12616;52.470;13.436;2023-05-16T13:43:14;14.70;99.90
24436;DHT22;12616;52.470;13.436;2023-05-16T13:45:42;14.80;99.90
24436;DHT22;12616;52.470;13.436;2023-05-16T13:48:09;14.90;99.90
24436;DHT22;12616;52.470;13.436;2023-05-16T13:50:36;15.10;99.90
24436;DHT22;12616;52.470;13.436;2023-05-16T13:53:04;15.30;99.90
24436;DHT22;12616;52.470;13.436;2023-05-16T13:55:32;15.40;99.90
24436;DHT22;12616;52.470;13.436;2023-05-16T13:57:59;15.40;1.00
24436;DHT22;12616;52.470;13.436;2023-05-16T14:00:27;14.90;1.00
24436;DHT22;12616;52.470;13.436;2023-05-16T14:02:54;15.10;99.90
24436;DHT22;12616;52.470;13.436;2023-05-16T14:05:20;15.10;99.90
24436;DHT22;12616;52.470;13.436;2023-05-16T14:07:48;15.20;99.90
24436;DHT22;12616;52.470;13.436;2023-05-16T14:10:14;14.90;1.00
24436;DHT22;12616;52.470;13.436;2023-05-16T14:12:43;15.30;99.90
24436;DHT22;12616;52.470;13.436;2023-05-16T14:15:10;15.40;99.90
24436;DHT22;12616;52.470;13.436;2023-05-16T14:17:36;15.40;99.90
24436;DHT22;12616;52.470;13.436;2023-05-16T14:20:04;15.10;99.90
24436;DHT22;12616;52.470;13.436;2023-05-16T14:22:35;15.20;99.90
24436;DHT22;12616;52.470;13.436;2023-05-16T14:25:03;15.10;99.90
24436;DHT22;12616;52.470;13.436;2023-05-16T14:27:30;15.20;99.90
24436;DHT22;12616;52.470;13.436;2023-05-16T14:29:58;15.30;99.90
24436;DHT22;12616;52.470;13.436;2023-05-16T14:32:25;15.30;99.90
24436;DHT22;12616;52.470;13.436;2023-05-16T14:34:52;15.40;99.90
24436;DHT22;12616;52.470;13.436;2023-05-16T14:37:19;15.40;99.90
24436;DHT22;12616;52.470;13.436;2023-05-16T14:39:46;15.50;99.90
24436;DHT22;12616;52.470;13.436;2023-05-16T14:42:15;15.50;99.90
24436;DHT22;12616;52.470;13.436;2023-05-16T14:44:42;15.60;99.90
24436;DHT22;12616;52.470;13.436;2023-05-16T14:47:10;15.30;99.90
24436;DHT22;12616;52.470;13.436;2023-05-16T14:49:38;15.70;99.90
24436;DHT22;12616;52.470;13.436;2023-05-16T14:52:05;15.80;99.90
24436;DHT22;12616;52.470;13.436;2023-05-16T14:54:32;15.90;1.00
24436;DHT22;12616;52.470;13.436;2023-05-16T14:56:59;16.00;99.90
24436;DHT22;12616;52.470;13.436;2023-05-16T14:59:26;16.20;1.00
24436;DHT22;12616;52.470;13.436;2023-05-16T15:01:53;16.20;99.90
24436;DHT22;12616;52.470;13.436;2023-05-16T15:04:21;16.10;99.90
24436;DHT22;12616;52.470;13.436;2023-05-16T15:06:48;16.00;99.90
24436;DHT22;12616;52.470;13.436;2023-05-16T15:09:15;15.60;1.00
24436;DHT22;12616;52.470;13.436;2023-05-16T15:11:50;15.80;99.90
24436;DHT22;12616;52.470;13.436;2023-05-16T15:15:07;15.90;1.00
24436;DHT22;12616;52.470;13.436;2023-05-16T15:17:36;16.80;99.90
24436;DHT22;12616;52.470;13.436;2023-05-16T15:20:06;15.70;99.90
24436;DHT22;12616;52.470;13.436;2023-05-16T15:22:33;15.80;99.90
24436;DHT22;12616;52.470;13.436;2023-05-16T15:25:00;16.00;99.90
24436;DHT22;12616;52.470;13.436;2023-05-16T15:27:30;15.90;99.90
24436;DHT22;12616;52.470;13.436;2023-05-16T15:29:57;15.80;99.90
24436;DHT22;12616;52.470;13.436;2023-05-16T15:32:24;15.60;99.90
24436;DHT22;12616;52.470;13.436;2023-05-16T15:34:51;15.70;99.90
24436;DHT22;12616;52.470;13.436;2023-05-16T15:37:20;15.80;99.90
24436;DHT22;12616;52.470;13.436;2023-05-16T15:39:47;16.00;99.90
24436;DHT22;12616;52.470;13.436;2023-05-16T15:42:14;16.80;1.00
24436;DHT22;12616;52.470;13.436;2023-05-16T15:44:41;16.50;99.90
24436;DHT22;12616;52.470;13.436;2023-05-16T15:47:07;16.70;99.90
24436;DHT22;12616;52.470;13.436;2023-05-16T15:49:35;16.70;99.90
24436;DHT22;12616;52.470;13.436;2023-05-16T15:52:02;16.80;99.90
24436;DHT22;12616;52.470;13.436;2023-05-16T15:54:30;16.50;99.90
24436;DHT22;12616;52.470;13.436;2023-05-16T15:56:57;16.50;99.90